Time;durP1;ratioP1;P1;durP2;ratioP2;P2;SDS_P1;SDS_P2;PMS_P1;PMS_P2;Temp;Humidity;BMP_temperature;BMP_pressure;BME280_temperature;BME280_humidity;BME280_pressure;Samples;Min_cycle;Max_cycle;Signal;HPM_P1;HPM_P2
2022/04/15 00:01:20;;;;;;;50.65;28.60;;;;;;;10.33;100.00;102547.97;5012621;28;20061;-68
2022/04/15 00:03:45;;;;;;;47.38;26.83;;;;;;;10.23;100.00;102558.94;5009941;28;20041;-68
2022/04/15 00:06:12;;;;;;;46.78;27.80;;;;;;;10.22;100.00;102560.63;5012987;28;20029;-69
2022/04/15 00:08:38;;;;;;;44.20;26.00;;;;;;;10.11;100.00;102565.41;5012965;28;20018;-69
2022/04/15 00:11:03;;;;;;;40.00;24.50;;;;;;;9.96;100.00;102562.06;5012441;28;20568;-69
2022/04/15 00:13:31;;;;;;;41.17;24.60;;;;;;;9.98;100.00;102556.88;5008732;28;20030;-69
2022/04/15 00:15:57;;;;;;;43.40;25.45;;;;;;;9.93;100.00;102568.09;5012775;28;20022;-69
2022/04/15 00:18:22;;;;;;;35.17;22.77;;;;;;;9.90;100.00;102561.78;5007248;28;20105;-68
2022/04/15 00:20:47;;;;;;;34.33;23.23;;;;;;;9.94;100.00;102563.72;5011036;28;20034;-68
2022/04/15 00:23:12;;;;;;;40.78;23.67;;;;;;;9.90;100.00;102561.78;4993743;28;20017;-67
2022/04/15 00:25:38;;;;;;;36.30;23.65;;;;;;;9.88;100.00;102564.34;5012479;28;20030;-67
2022/04/15 00:28:03;;;;;;;35.42;21.88;;;;;;;9.86;100.00;102572.97;5010798;28;20033;-69
2022/04/15 00:30:29;;;;;;;40.58;23.83;;;;;;;9.81;100.00;102561.34;5012001;28;20030;-66
2022/04/15 00:32:54;;;;;;;36.85;23.55;;;;;;;9.82;100.00;102564.06;5012064;28;20025;-67
2022/04/15 00:35:19;;;;;;;39.17;25.10;;;;;;;9.73;100.00;102564.50;5012189;28;20022;-66
2022/04/15 00:37:46;;;;;;;36.45;23.45;;;;;;;9.54;100.00;102567.09;5012107;28;20029;-67
2022/04/15 00:40:12;;;;;;;40.35;23.08;;;;;;;9.70;100.00;102579.22;5012108;28;20026;-67
2022/04/15 00:42:38;;;;;;;35.80;23.77;;;;;;;9.78;100.00;102567.38;5005121;28;20092;-68
2022/04/15 00:45:03;;;;;;;44.13;26.13;;;;;;;9.72;100.00;102578.47;5011980;28;20081;-68
2022/04/15 00:47:53;;;;;;;35.03;23.00;;;;;;;9.67;100.00;102585.25;5012651;28;20026;-68
2022/04/15 00:50:29;;;;;;;46.25;24.83;;;;;;;9.70;100.00;102582.78;5012568;28;20030;-68
2022/04/15 00:52:58;;;;;;;39.10;24.52;;;;;;;9.72;100.00;102577.59;5010230;28;20096;-68
2022/04/15 00:55:24;;;;;;;39.00;25.35;;;;;;;9.77;100.00;102578.72;5012427;28;20034;-68
2022/04/15 00:57:56;;;;;;;42.65;25.98;;;;;;;9.65;100.00;102573.75;5011916;28;20042;-68
2022/04/15 01:00:22;;;;;;;45.75;28.48;;;;;;;9.66;100.00;102580.81;5010582;28;20108;-68
2022/04/15 01:02:48;;;;;;;43.78;25.90;;;;;;;9.60;100.00;102575.25;5012347;28;20041;-71
2022/04/15 01:05:14;;;;;;;41.25;26.33;;;;;;;9.48;100.00;102577.28;5012341;28;20437;-68
2022/04/15 01:07:50;;;;;;;37.72;24.48;;;;;;;9.50;100.00;102575.66;5000462;28;20031;-68
2022/04/15 01:10:18;;;;;;;43.35;26.27;;;;;;;9.54;100.00;102577.59;4979356;28;20160;-68
2022/04/15 01:12:46;;;;;;;47.00;25.70;;;;;;;9.42;100.00;102583.16;5010668;28;20107;-68
2022/04/15 01:15:15;;;;;;;49.80;28.38;;;;;;;9.58;100.00;102579.56;5011721;28;20022;-69
2022/04/15 01:17:41;;;;;;;44.05;27.88;;;;;;;9.62;100.00;102576.25;5012159;28;20032;-68
2022/04/15 01:20:09;;;;;;;49.00;27.48;;;;;;;9.56;100.00;102583.81;5013514;28;20030;-68
2022/04/15 01:22:41;;;;;;;49.20;28.92;;;;;;;9.44;100.00;102581.47;5015305;28;20046;-68
2022/04/15 01:25:09;;;;;;;49.20;29.17;;;;;;;9.44;100.00;102584.09;5016023;28;20033;-68
2022/04/15 01:27:37;;;;;;;50.47;29.70;;;;;;;9.55;100.00;102585.56;5015081;28;20405;-69
2022/04/15 01:30:10;;;;;;;55.22;28.73;;;;;;;9.44;100.00;102586.75;5015959;28;20375;-68
2022/04/15 01:32:35;;;;;;;45.83;28.50;;;;;;;9.38;100.00;102591.72;5015505;28;20478;-68
2022/04/15 01:35:00;;;;;;;46.88;28.30;;;;;;;9.36;100.00;102585.47;5015406;28;20079;-68
2022/04/15 01:37:28;;;;;;;51.80;30.65;;;;;;;9.47;100.00;102591.25;5013182;28;20478;-67
2022/04/15 01:39:54;;;;;;;50.25;28.58;;;;;;;9.43;100.00;102584.97;5015568;28;20049;-68
2022/04/15 01:42:19;;;;;;;49.85;28.55;;;;;;;9.27;100.00;102583.28;5013955;28;20030;-69
2022/04/15 01:44:44;;;;;;;54.28;29.27;;;;;;;9.26;100.00;102586.72;5010059;28;20789;-68
2022/04/15 01:47:10;;;;;;;46.28;27.17;;;;;;;9.09;100.00;102588.53;5012420;28;20038;-68
2022/04/15 01:49:36;;;;;;;49.67;28.50;;;;;;;9.19;100.00;102595.13;5015565;28;20038;-68
2022/04/15 01:52:03;;;;;;;45.80;28.90;;;;;;;9.18;100.00;102593.31;5015082;28;20423;-68
2022/04/15 01:54:28;;;;;;;52.03;30.92;;;;;;;9.24;100.00;102593.66;5014053;28;20109;-69
2022/04/15 01:56:55;;;;;;;51.78;29.08;;;;;;;9.24;100.00;102601.53;5013410;28;20060;-68
2022/04/15 01:59:21;;;;;;;50.85;28.48;;;;;;;9.27;100.00;102606.94;5015264;28;20029;-68
2022/04/15 02:01:46;;;;;;;45.70;27.95;;;;;;;9.37;100.00;102606.59;5014620;28;20064;-69
2022/04/15 02:04:11;;;;;;;48.90;30.65;;;;;;;9.28;100.00;102609.63;5014311;28;20062;-69
2022/04/15 02:06:37;;;;;;;47.42;28.30;;;;;;;9.37;100.00;102617.09;5013702;28;20026;-68
2022/04/15 02:09:03;;;;;;;56.90;29.88;;;;;;;9.49;100.00;102615.88;5007223;28;20097;-68
2022/04/15 02:11:28;;;;;;;57.80;29.90;;;;;;;9.47;100.00;102622.78;5014544;28;20116;-69
2022/04/15 02:13:53;;;;;;;81.32;28.33;;;;;;;9.36;100.00;102620.53;5014202;28;20030;-68
2022/04/15 02:16:28;;;;;;;62.92;28.67;;;;;;;9.41;100.00;102618.13;5014772;28;20025;-69
2022/04/15 02:18:53;;;;;;;58.50;31.95;;;;;;;9.41;100.00;102624.31;5014838;28;20128;-69
2022/04/15 02:21:18;;;;;;;58.50;31.02;;;;;;;9.41;100.00;102624.31;5012897;28;20073;-69
2022/04/15 02:23:44;;;;;;;62.50;32.53;;;;;;;9.33;100.00;102622.09;5013717;28;20193;-68
2022/04/15 02:26:09;;;;;;;64.03;32.33;;;;;;;9.36;100.00;102615.28;5014854;28;20029;-69
2022/04/15 02:28:34;;;;;;;59.60;33.40;;;;;;;9.42;100.00;102618.19;5014565;28;20049;-68
2022/04/15 02:31:00;;;;;;;61.95;31.85;;;;;;;9.44;100.00;102619.19;5005966;28;20453;-68
2022/04/15 02:33:25;;;;;;;56.70;29.40;;;;;;;9.38;100.00;102613.63;5008606;28;20053;-68
2022/04/15 02:35:50;;;;;;;48.17;30.98;;;;;;;9.32;100.00;102618.59;5014329;28;20017;-68
2022/04/15 02:38:16;;;;;;;50.47;27.92;;;;;;;9.32;100.00;102620.28;5013501;28;20030;-69
2022/04/15 02:40:42;;;;;;;51.30;28.77;;;;;;;9.26;100.00;102628.75;5009464;28;20037;-68
2022/04/15 02:43:09;;;;;;;51.67;29.48;;;;;;;9.32;100.00;102631.72;5014248;28;20038;-68
2022/04/15 02:45:34;;;;;;;55.80;31.08;;;;;;;9.28;100.00;102616.63;5014086;28;20022;-68
2022/04/15 02:47:59;;;;;;;56.85;30.25;;;;;;;9.28;100.00;102632.38;5012905;28;20045;-68
2022/04/15 02:50:25;;;;;;;53.45;30.67;;;;;;;9.38;100.00;102624.13;5014396;28;20037;-69
2022/04/15 02:52:50;;;;;;;48.55;30.50;;;;;;;9.33;100.00;102636.13;5013613;28;20034;-69
2022/04/15 02:55:15;;;;;;;52.55;31.15;;;;;;;9.21;100.00;102625.00;5014284;28;20036;-68
2022/04/15 02:57:41;;;;;;;51.63;29.50;;;;;;;9.25;100.00;102642.72;5009346;28;20026;-69
2022/04/15 03:00:07;;;;;;;57.25;30.75;;;;;;;9.33;100.00;102645.75;4985059;28;20067;-68
2022/04/15 03:02:33;;;;;;;50.42;28.70;;;;;;;9.35;100.00;102645.00;5013471;28;20045;-69
2022/04/15 03:04:59;;;;;;;46.25;27.90;;;;;;;9.43;100.00;102643.66;5014024;28;20021;-68
2022/04/15 03:07:24;;;;;;;45.53;27.75;;;;;;;9.41;100.00;102640.06;5012104;28;20061;-69
2022/04/15 03:09:50;;;;;;;46.47;26.63;;;;;;;9.42;100.00;102641.84;4992200;28;20109;-68
2022/04/15 03:12:15;;;;;;;40.72;25.33;;;;;;;9.42;100.00;102652.34;5010657;28;20025;-67
2022/04/15 03:14:41;;;;;;;44.30;25.67;;;;;;;9.53;100.00;102646.75;5014134;28;20458;-68
2022/04/15 03:17:07;;;;;;;40.70;24.35;;;;;;;9.53;100.00;102650.25;5002795;28;20040;-67
2022/04/15 03:19:32;;;;;;;38.22;24.50;;;;;;;9.53;100.00;102649.38;4996054;28;20025;-68
2022/04/15 03:21:58;;;;;;;40.00;24.42;;;;;;;9.62;100.00;102656.00;5012482;28;20050;-67
2022/04/15 03:24:23;;;;;;;39.45;24.00;;;;;;;9.51;100.00;102651.00;5010308;28;20026;-68
2022/04/15 03:26:48;;;;;;;39.13;24.90;;;;;;;9.62;100.00;102660.34;5012419;28;20061;-68
2022/04/15 03:29:14;;;;;;;46.90;25.10;;;;;;;9.28;100.00;102659.53;4996583;28;20120;-68
2022/04/15 03:31:39;;;;;;;37.17;22.15;;;;;;;9.32;100.00;102664.94;5016239;28;20441;-68
2022/04/15 03:34:04;;;;;;;35.88;23.95;;;;;;;9.40;100.00;102663.59;5013297;28;20068;-68
2022/04/15 03:36:30;;;;;;;36.28;21.70;;;;;;;9.36;100.00;102670.47;5013551;28;20537;-68
2022/04/15 03:38:55;;;;;;;35.10;21.80;;;;;;;9.45;100.00;102668.31;5013491;28;20025;-68
2022/04/15 03:41:22;;;;;;;36.17;21.02;;;;;;;9.43;100.00;102664.69;5012133;28;20121;-68
2022/04/15 03:43:50;;;;;;;38.95;21.25;;;;;;;9.42;100.00;102665.50;5012845;28;20030;-68
2022/04/15 03:46:15;;;;;;;35.22;21.23;;;;;;;9.47;100.00;102670.06;5007838;28;20029;-68
2022/04/15 03:48:41;;;;;;;33.03;21.17;;;;;;;9.42;100.00;102670.75;5010699;28;20731;-68
2022/04/15 03:51:08;;;;;;;31.05;20.20;;;;;;;9.42;100.00;102670.75;5011120;28;20139;-68
2022/04/15 03:53:34;;;;;;;29.55;20.35;;;;;;;9.36;100.00;102672.16;5013478;28;20169;-68
2022/04/15 03:55:59;;;;;;;32.17;20.65;;;;;;;9.37;100.00;102673.97;5005265;28;20180;-68
2022/04/15 03:58:24;;;;;;;31.58;21.42;;;;;;;9.42;100.00;102670.75;5010765;28;20022;-68
2022/04/15 04:00:50;;;;;;;32.10;21.13;;;;;;;9.35;100.00;102666.00;5012617;28;20108;-68
2022/04/15 04:03:15;;;;;;;33.47;21.58;;;;;;;9.39;100.00;102675.84;5007007;28;20049;-68
2022/04/15 04:05:41;;;;;;;31.58;21.58;;;;;;;9.41;100.00;102676.84;5012330;28;20034;-67
2022/04/15 04:08:07;;;;;;;35.92;20.02;;;;;;;9.37;100.00;102674.91;5012948;28;20038;-68
2022/04/15 04:10:33;;;;;;;32.15;20.80;;;;;;;9.35;100.00;102678.25;5012869;28;20096;-68
2022/04/15 04:12:59;;;;;;;30.08;20.20;;;;;;;9.30;100.00;102678.00;5010544;28;20429;-67
2022/04/15 04:15:25;;;;;;;32.40;19.90;;;;;;;9.19;100.00;102682.72;5005998;28;20096;-68
2022/04/15 04:17:50;;;;;;;31.75;20.67;;;;;;;9.19;100.00;102690.59;5013019;28;20067;-68
2022/04/15 04:20:17;;;;;;;36.53;20.58;;;;;;;9.17;100.00;102678.19;5012628;28;20076;-68
2022/04/15 04:22:42;;;;;;;32.50;20.35;;;;;;;9.04;100.00;102688.06;5012500;28;20513;-68
2022/04/15 04:25:09;;;;;;;32.22;19.30;;;;;;;9.17;100.00;102684.38;5012689;28;20030;-68
2022/04/15 04:27:36;;;;;;;35.17;19.58;;;;;;;9.28;100.00;102687.56;5012325;28;20029;-67
2022/04/15 04:30:03;;;;;;;31.40;18.75;;;;;;;9.19;100.00;102679.19;5012872;28;20029;-68
2022/04/15 04:32:29;;;;;;;30.75;19.30;;;;;;;9.26;100.00;102678.69;5012752;28;20038;-67
2022/04/15 04:34:54;;;;;;;32.15;20.00;;;;;;;9.24;100.00;102686.47;5006064;28;20036;-68
2022/04/15 04:37:19;;;;;;;29.58;19.17;;;;;;;9.22;100.00;102690.75;5012052;28;20030;-68
2022/04/15 04:39:44;;;;;;;31.02;20.02;;;;;;;8.99;100.00;102692.16;5012383;28;20100;-69
2022/04/15 04:42:10;;;;;;;29.73;19.75;;;;;;;9.11;100.00;102694.53;5004754;28;20033;-67
2022/04/15 04:44:38;;;;;;;32.65;19.02;;;;;;;9.15;100.00;102698.25;5009788;28;20030;-68
2022/04/15 04:47:06;;;;;;;36.85;21.08;;;;;;;9.16;100.00;102694.81;5005841;28;20038;-68
2022/04/15 04:49:31;;;;;;;30.85;20.08;;;;;;;9.27;100.00;102696.25;5012775;28;20394;-67
2022/04/15 04:51:56;;;;;;;34.97;21.15;;;;;;;9.14;100.00;102699.94;5012376;28;20034;-69
2022/04/15 04:54:22;;;;;;;35.13;21.70;;;;;;;9.24;100.00;102703.97;5013258;28;20025;-69
2022/04/15 04:56:47;;;;;;;36.35;20.80;;;;;;;9.09;100.00;102704.97;5016133;28;20083;-68
2022/04/15 04:59:13;;;;;;;41.28;22.75;;;;;;;9.20;100.00;102712.53;5010084;28;20033;-69
2022/04/15 05:01:38;;;;;;;32.88;21.38;;;;;;;9.13;100.00;102707.75;5015278;28;20080;-69
2022/04/15 05:04:03;;;;;;;39.85;22.10;;;;;;;9.21;100.00;102711.66;5016211;28;20041;-69
2022/04/15 05:06:29;;;;;;;37.45;21.65;;;;;;;9.19;100.00;102708.97;5015497;28;20022;-68
2022/04/15 05:08:54;;;;;;;37.35;22.90;;;;;;;9.17;100.00;102717.59;5014818;28;20025;-69
2022/04/15 05:11:19;;;;;;;32.15;21.20;;;;;;;9.28;100.00;102719.97;5006469;28;20026;-69
2022/04/15 05:13:45;;;;;;;37.85;22.00;;;;;;;9.27;100.00;102719.88;5012336;28;20022;-68
2022/04/15 05:16:10;;;;;;;39.28;22.52;;;;;;;9.26;100.00;102726.88;5015424;28;20069;-68
2022/04/15 05:18:35;;;;;;;34.15;21.77;;;;;;;9.21;100.00;102716.94;5015120;28;20470;-69
2022/04/15 05:21:01;;;;;;;37.88;22.73;;;;;;;9.26;100.00;102728.59;5015574;28;20030;-68
2022/04/15 05:23:27;;;;;;;37.78;22.35;;;;;;;9.22;100.00;102729.25;5014639;28;20026;-68
2022/04/15 05:25:52;;;;;;;37.97;23.20;;;;;;;9.31;100.00;102745.50;5015061;28;20029;-69
2022/04/15 05:28:18;;;;;;;38.53;22.75;;;;;;;9.20;100.00;102746.66;5015023;28;20059;-68
2022/04/15 05:30:43;;;;;;;37.50;22.02;;;;;;;9.27;100.00;102752.31;5016108;28;20035;-69
2022/04/15 05:33:09;;;;;;;42.47;23.95;;;;;;;9.31;100.00;102750.75;5011172;28;20026;-69
2022/04/15 05:35:34;;;;;;;41.30;23.83;;;;;;;9.27;100.00;102752.31;5011344;28;20041;-69
2022/04/15 05:37:59;;;;;;;37.53;22.80;;;;;;;9.32;100.00;102754.28;5018425;28;20025;-69
2022/04/15 05:40:27;;;;;;;35.33;22.88;;;;;;;9.40;100.00;102758.19;5014750;28;20444;-69
2022/04/15 05:42:52;;;;;;;37.30;23.10;;;;;;;9.42;100.00;102762.72;5014561;28;20419;-69
2022/04/15 05:45:18;;;;;;;36.58;21.80;;;;;;;9.27;100.00;102762.81;5009536;28;20045;-69
2022/04/15 05:47:44;;;;;;;38.65;22.52;;;;;;;9.22;100.00;102760.78;5022554;28;20508;-69
2022/04/15 05:50:09;;;;;;;42.90;23.63;;;;;;;9.17;100.00;102764.88;5015579;28;20080;-68
2022/04/15 05:52:35;;;;;;;35.97;22.15;;;;;;;9.26;100.00;102768.91;5015168;28;20030;-69
2022/04/15 05:55:00;;;;;;;39.67;22.15;;;;;;;9.33;100.00;102770.09;5015052;28;20024;-67
2022/04/15 05:57:26;;;;;;;38.30;22.10;;;;;;;9.38;100.00;102770.38;5014881;28;20422;-68
2022/04/15 05:59:51;;;;;;;39.97;22.98;;;;;;;9.39;100.00;102773.06;5015545;28;20100;-68
2022/04/15 06:02:16;;;;;;;41.83;23.20;;;;;;;9.42;100.00;102770.59;5013833;28;20034;-68
2022/04/15 06:04:42;;;;;;;42.22;23.83;;;;;;;9.38;100.00;102776.50;5014367;28;20497;-67
2022/04/15 06:07:07;;;;;;;46.88;24.15;;;;;;;9.51;100.00;102777.16;5014803;28;20025;-68
2022/04/15 06:09:32;;;;;;;41.15;23.45;;;;;;;9.45;100.00;102776.03;4996969;28;20073;-68
2022/04/15 06:11:58;;;;;;;43.30;25.05;;;;;;;9.51;100.00;102780.69;5014919;28;20458;-68
2022/04/15 06:14:23;;;;;;;43.60;25.52;;;;;;;9.51;100.00;102783.34;5014411;28;20401;-71
2022/04/15 06:16:49;;;;;;;36.65;22.23;;;;;;;9.57;100.00;102782.75;5013467;28;20025;-71
2022/04/15 06:19:16;;;;;;;33.05;20.98;;;;;;;9.60;100.00;102783.81;5014275;28;20132;-70
2022/04/15 06:21:42;;;;;;;33.08;20.27;;;;;;;9.58;100.00;102784.56;5012563;28;20077;-70
2022/04/15 06:24:08;;;;;;;29.27;19.33;;;;;;;9.47;100.00;102785.69;4994932;28;20065;-70
2022/04/15 06:26:34;;;;;;;30.63;17.98;;;;;;;9.57;100.00;102793.25;5013855;28;20473;-70
2022/04/15 06:29:00;;;;;;;30.52;18.63;;;;;;;9.45;100.00;102788.25;5011847;28;20117;-67
2022/04/15 06:31:25;;;;;;;27.10;18.10;;;;;;;9.54;100.00;102796.63;5006221;28;20032;-71
2022/04/15 06:33:52;;;;;;;32.38;16.58;;;;;;;9.47;100.00;102793.59;5015460;28;20466;-72
2022/04/15 06:36:19;;;;;;;25.42;15.77;;;;;;;9.50;100.00;102792.03;5020386;28;20068;-71
2022/04/15 06:38:44;;;;;;;24.17;15.98;;;;;;;9.48;100.00;102798.03;5013481;28;20038;-71
2022/04/15 06:41:09;;;;;;;29.13;16.65;;;;;;;9.55;100.00;102800.13;5011737;28;20580;-72
2022/04/15 06:43:35;;;;;;;28.75;15.68;;;;;;;9.54;100.00;102806.25;5012371;28;20366;-72
2022/04/15 06:46:02;;;;;;;23.90;16.35;;;;;;;9.57;100.00;102815.16;5014211;28;20022;-73
2022/04/15 06:48:27;;;;;;;23.55;15.82;;;;;;;9.70;100.00;102816.72;4995916;28;20030;-72
2022/04/15 06:50:54;;;;;;;21.83;14.95;;;;;;;9.68;100.00;102821.00;5013290;28;20017;-72
2022/04/15 06:53:19;;;;;;;22.83;15.18;;;;;;;9.73;100.00;102816.00;5013784;28;20033;-73
2022/04/15 06:55:45;;;;;;;23.05;14.95;;;;;;;9.79;100.00;102819.84;5008343;28;20477;-73
2022/04/15 06:58:10;;;;;;;23.33;13.60;;;;;;;9.72;100.00;102820.31;5011571;28;20026;-71
2022/04/15 07:00:37;;;;;;;18.00;13.88;;;;;;;9.57;100.00;102824.78;5009906;28;20036;-71
2022/04/15 07:03:03;;;;;;;18.17;11.98;;;;;;;9.59;100.00;102823.13;4994623;28;20021;-71
2022/04/15 07:05:29;;;;;;;18.05;10.68;;;;;;;9.76;100.00;102824.91;5010722;28;20030;-72
2022/04/15 07:07:54;;;;;;;15.95;10.75;;;;;;;9.77;100.00;102832.00;5011769;28;20037;-72
2022/04/15 07:10:20;;;;;;;12.98;9.52;;;;;;;9.88;100.00;102832.53;5012910;28;20022;-72
2022/04/15 07:12:45;;;;;;;16.67;10.25;;;;;;;9.96;100.00;102823.31;5012315;28;20057;-72
2022/04/15 07:15:10;;;;;;;15.23;10.15;;;;;;;9.96;100.00;102835.59;5012700;28;20056;-72
2022/04/15 07:17:36;;;;;;;15.50;9.43;;;;;;;9.98;100.00;102831.28;5003413;28;20030;-72
2022/04/15 07:20:01;;;;;;;13.13;9.27;;;;;;;9.96;100.00;102840.84;5012989;28;20026;-72
2022/04/15 07:22:26;;;;;;;13.38;9.85;;;;;;;9.86;100.00;102838.53;5012921;28;20048;-71
2022/04/15 07:24:52;;;;;;;14.75;9.05;;;;;;;9.98;100.00;102849.69;5009496;28;20030;-72
2022/04/15 07:27:17;;;;;;;15.75;8.10;;;;;;;10.04;100.00;102839.50;5013130;28;20030;-72
2022/04/15 07:29:44;;;;;;;17.75;8.60;;;;;;;10.12;100.00;102843.41;5010225;28;20030;-72
2022/04/15 07:32:10;;;;;;;13.25;7.75;;;;;;;10.17;100.00;102850.63;5017713;28;20088;-71
2022/04/15 07:34:36;;;;;;;15.73;8.65;;;;;;;10.21;100.00;102850.84;5010637;28;20029;-72
2022/04/15 07:37:02;;;;;;;10.23;6.90;;;;;;;10.20;100.00;102856.06;5015444;28;20037;-71
2022/04/15 07:39:28;;;;;;;16.75;8.48;;;;;;;10.19;100.00;102846.38;5018337;28;20034;-72
2022/04/15 07:41:53;;;;;;;14.93;8.00;;;;;;;10.33;100.00;102842.69;5032084;28;20024;-72
2022/04/15 07:44:19;;;;;;;15.55;8.48;;;;;;;10.42;100.00;102844.94;5018949;28;20028;-72
2022/04/15 07:46:45;;;;;;;12.13;6.30;;;;;;;10.53;100.00;102832.28;5014328;28;20053;-71
2022/04/15 07:49:11;;;;;;;17.70;6.55;;;;;;;10.59;100.00;102837.84;5025376;28;20025;-71
2022/04/15 07:51:37;;;;;;;10.15;6.28;;;;;;;10.67;100.00;102844.38;5017745;28;20026;-71
2022/04/15 07:54:03;;;;;;;8.93;4.95;;;;;;;10.78;100.00;102840.56;5011538;28;20109;-71
2022/04/15 07:56:29;;;;;;;8.10;4.75;;;;;;;10.82;100.00;102843.31;5011796;28;20030;-71
2022/04/15 07:58:54;;;;;;;10.18;4.65;;;;;;;10.93;100.00;102843.00;5007322;28;20088;-71
2022/04/15 08:01:20;;;;;;;5.90;4.85;;;;;;;11.04;100.00;102851.41;4995122;28;20032;-71
2022/04/15 08:03:46;;;;;;;7.57;4.85;;;;;;;11.08;100.00;102844.53;5011406;28;20022;-71
2022/04/15 08:06:12;;;;;;;6.43;4.28;;;;;;;11.18;100.00;102838.88;5001968;28;20393;-68
2022/04/15 08:08:38;;;;;;;7.68;4.95;;;;;;;11.29;100.00;102845.53;5012847;28;20014;-69
2022/04/15 08:11:03;;;;;;;9.48;5.05;;;;;;;11.18;100.00;102848.50;5013143;28;20025;-68
2022/04/15 08:13:29;;;;;;;6.55;4.15;;;;;;;11.06;100.00;102849.75;4995310;28;20478;-68
2022/04/15 08:15:55;;;;;;;10.85;4.85;;;;;;;11.12;100.00;102857.03;5012555;28;20022;-68
2022/04/15 08:18:21;;;;;;;10.80;5.57;;;;;;;11.18;100.00;102849.41;5012837;28;20037;-68
2022/04/15 08:20:47;;;;;;;6.82;4.45;;;;;;;11.19;100.00;102852.94;4997182;28;20075;-69
2022/04/15 08:23:13;;;;;;;11.65;4.35;;;;;;;11.25;100.00;102851.50;5009666;28;20041;-68
2022/04/15 08:25:38;;;;;;;7.28;4.85;;;;;;;11.13;100.00;102856.19;5013398;28;20052;-68
2022/04/15 08:28:04;;;;;;;8.35;4.60;;;;;;;11.23;100.00;102862.78;5012311;28;20034;-69
2022/04/15 08:30:33;;;;;;;5.93;4.53;;;;;;;11.44;100.00;102863.78;5016777;28;20029;-69
2022/04/15 08:32:59;;;;;;;8.90;4.60;;;;;;;11.37;100.00;102850.28;5016110;28;20029;-68
2022/04/15 08:35:24;;;;;;;8.10;4.50;;;;;;;11.50;100.00;102860.53;5012038;28;20033;-68
2022/04/15 08:37:49;;;;;;;7.82;4.63;;;;;;;11.55;100.00;102852.84;5016110;28;20029;-69
2022/04/15 08:40:15;;;;;;;11.25;4.63;;;;;;;11.60;100.00;102853.94;5018098;28;20042;-69
2022/04/15 08:42:42;;;;;;;9.32;3.90;;;;;;;11.67;100.00;102861.28;5016295;28;20023;-68
2022/04/15 08:45:08;;;;;;;8.90;4.32;;;;;;;11.70;99.11;102863.16;5027973;28;20037;-68
2022/04/15 08:47:36;;;;;;;6.40;4.25;;;;;;;11.92;98.67;102858.00;4997443;28;20022;-68
2022/04/15 08:50:06;;;;;;;9.55;3.80;;;;;;;12.17;97.79;102855.53;5016093;28;20022;-68
2022/04/15 08:52:35;;;;;;;6.55;4.07;;;;;;;12.30;98.41;102864.06;5013960;28;20466;-67
2022/04/15 08:55:00;;;;;;;7.47;3.90;;;;;;;12.55;96.75;102867.69;5014923;28;20033;-68
2022/04/15 08:57:25;;;;;;;9.50;4.07;;;;;;;12.55;94.37;102864.16;5013392;28;20034;-67
2022/04/15 08:59:53;;;;;;;4.88;3.65;;;;;;;12.26;94.75;102874.41;5011220;28;20075;-67
2022/04/15 09:02:37;;;;;;;9.15;4.28;;;;;;;12.31;96.33;102880.78;5016223;28;20157;-68
2022/04/15 09:05:06;;;;;;;6.60;3.90;;;;;;;12.47;96.29;102885.84;5016627;28;20113;-68
2022/04/15 09:07:34;;;;;;;7.63;3.90;;;;;;;12.38;94.42;102880.19;5010353;28;20121;-68
2022/04/15 09:10:01;;;;;;;6.43;3.60;;;;;;;12.39;95.34;102884.66;5015868;28;20488;-68
2022/04/15 09:12:29;;;;;;;7.53;3.60;;;;;;;12.40;94.96;102886.44;5015459;28;20473;-68
2022/04/15 09:15:11;;;;;;;12.18;3.83;;;;;;;12.42;94.31;102890.03;5014627;28;20438;-69
2022/04/15 09:17:39;;;;;;;6.20;3.83;;;;;;;12.19;93.89;102894.34;5004116;28;20026;-68
2022/04/15 09:20:06;;;;;;;5.15;3.72;;;;;;;12.29;95.13;102893.03;5016069;28;20079;-68
2022/04/15 09:22:32;;;;;;;4.95;3.75;;;;;;;12.48;94.25;102902.63;5014423;28;20072;-68
2022/04/15 09:24:58;;;;;;;6.15;3.60;;;;;;;12.48;94.26;102892.94;4997379;28;20038;-68
2022/04/15 09:27:24;;;;;;;6.97;4.30;;;;;;;12.64;94.66;102890.94;5015542;28;20030;-67
2022/04/15 09:29:51;;;;;;;6.35;3.65;;;;;;;12.67;94.68;102895.44;5014908;28;20026;-68
2022/04/15 09:32:18;;;;;;;6.20;3.95;;;;;;;13.01;92.90;102889.78;5014964;28;20029;-68
2022/04/15 09:34:57;;;;;;;5.75;3.63;;;;;;;13.43;90.15;102888.75;5015580;28;20040;-69
2022/04/15 09:37:29;;;;;;;5.88;4.05;;;;;;;13.41;90.38;102896.63;5006547;28;20030;-68
2022/04/15 09:40:26;;;;;;;6.82;4.03;;;;;;;13.89;90.50;102894.84;5014651;28;20061;-68
2022/04/15 09:42:53;;;;;;;9.43;4.03;;;;;;;13.87;87.77;102901.84;5012223;28;20028;-68
2022/04/15 09:45:24;;;;;;;6.43;4.18;;;;;;;14.15;89.81;102899.31;5014887;28;20030;-68
2022/04/15 09:47:57;;;;;;;7.10;3.22;;;;;;;14.38;86.00;102898.28;4997504;28;20021;-68
2022/04/15 09:50:22;;;;;;;5.70;3.60;;;;;;;14.44;82.93;102894.09;5013391;28;20030;-68
2022/04/15 09:52:51;;;;;;;7.63;3.45;;;;;;;14.55;84.42;102904.19;5014123;28;20036;-69
2022/04/15 09:55:20;;;;;;;5.00;3.38;;;;;;;14.63;83.80;102908.91;5013761;28;20029;-69
2022/04/15 09:57:47;;;;;;;4.68;3.70;;;;;;;14.09;83.81;102907.03;5014018;28;20026;-68
2022/04/15 10:00:14;;;;;;;4.85;3.17;;;;;;;14.34;85.88;102905.25;5015540;28;20034;-68
2022/04/15 10:02:42;;;;;;;5.90;3.67;;;;;;;13.98;83.31;102900.47;5012286;28;20022;-69
2022/04/15 10:05:08;;;;;;;9.13;3.22;;;;;;;13.70;86.45;102903.84;5010556;28;20037;-68
2022/04/15 10:07:34;;;;;;;6.80;2.80;;;;;;;14.12;86.17;102915.09;5011598;28;20026;-69
2022/04/15 10:10:02;;;;;;;3.92;3.30;;;;;;;14.34;87.15;102906.16;4997602;28;20038;-71
2022/04/15 10:12:29;;;;;;;6.78;3.47;;;;;;;14.56;82.88;102905.97;5019171;28;20022;-72
2022/04/15 10:14:55;;;;;;;6.38;3.08;;;;;;;14.61;82.57;102904.38;5015527;28;20034;-71
2022/04/15 10:17:22;;;;;;;6.40;3.30;;;;;;;14.81;83.91;102898.03;5015152;28;20025;-71
2022/04/15 10:19:49;;;;;;;4.97;3.00;;;;;;;15.23;82.36;102907.25;5014986;28;20173;-71
2022/04/15 10:22:16;;;;;;;5.18;3.22;;;;;;;14.60;81.53;102897.28;5014180;28;20453;-71
2022/04/15 10:24:41;;;;;;;4.57;2.80;;;;;;;14.92;79.70;102902.75;4998249;28;20044;-71
2022/04/15 10:27:07;;;;;;;5.45;3.08;;;;;;;15.21;84.22;102910.72;5022348;28;20029;-71
2022/04/15 10:29:32;;;;;;;3.25;2.83;;;;;;;15.57;82.74;102908.28;5012575;28;20029;-71
2022/04/15 10:32:11;;;;;;;5.35;2.78;;;;;;;15.65;78.16;102905.81;5010728;28;20054;-72
2022/04/15 10:34:45;;;;;;;5.65;3.20;;;;;;;16.08;77.25;102906.16;5011421;28;20104;-72
2022/04/15 10:37:10;;;;;;;;;;;;;;;16.40;78.93;102899.03;5011337;28;20026;-72
2022/04/15 10:39:47;;;;;;;6.07;2.80;;;;;;;16.75;75.45;102906.97;4995256;28;20293;-73
2022/04/15 10:42:18;;;;;;;3.55;2.40;;;;;;;16.72;77.20;102908.66;4994880;28;20021;-71
2022/04/15 10:44:44;;;;;;;3.85;2.63;;;;;;;16.41;74.21;102894.59;5013078;28;20061;-71
2022/04/15 10:47:27;;;;;;;9.40;3.13;;;;;;;16.63;75.93;102904.94;5013571;28;20473;-71
2022/04/15 10:50:06;;;;;;;6.10;2.53;;;;;;;16.62;73.53;102903.13;5012383;28;20477;-71
2022/04/15 10:52:36;;;;;;;6.25;2.90;;;;;;;16.43;74.99;102899.09;5013002;28;20268;-71
2022/04/15 10:55:06;;;;;;;3.15;2.53;;;;;;;16.43;75.29;102899.09;4995802;28;20470;-71
2022/04/15 10:57:33;;;;;;;6.90;2.80;;;;;;;16.61;74.43;102903.97;5013009;28;20370;-71
2022/04/15 11:02:45;;;;;;;6.90;3.00;;;;;;;16.83;72.35;102900.09;5011892;28;20055;-71
2022/04/15 11:05:13;;;;;;;5.90;2.83;;;;;;;16.97;74.42;102902.19;5013192;28;20092;-71
2022/04/15 11:08:01;;;;;;;3.25;2.70;;;;;;;16.92;70.60;102893.22;5012365;28;20037;-71
2022/04/15 11:11:03;;;;;;;4.80;2.60;;;;;;;17.15;71.77;102897.28;5013465;28;20552;-72
2022/04/15 11:13:39;;;;;;;3.00;2.50;;;;;;;17.09;70.17;102899.81;5013057;28;20033;-72
2022/04/15 11:16:10;;;;;;;6.22;2.75;;;;;;;16.72;70.18;102896.25;5012394;28;20492;-72